createdAt,value
2016-06-14T00:00:09.897Z,0
2016-06-14T00:01:09.588Z,0
2016-06-14T00:02:09.591Z,0
2016-06-14T00:03:09.578Z,0
2016-06-14T00:04:09.535Z,0
2016-06-14T00:05:09.521Z,0
2016-06-14T00:06:09.494Z,0
2016-06-14T00:07:09.466Z,0
2016-06-14T00:08:09.437Z,0
2016-06-14T00:09:09.425Z,0
2016-06-14T00:10:09.396Z,0
2016-06-14T00:11:09.384Z,0
2016-06-14T00:12:09.372Z,0
2016-06-14T00:13:09.359Z,0
2016-06-14T00:14:10.330Z,0
2016-06-14T00:15:09.381Z,0
2016-06-14T00:16:09.289Z,0
2016-06-14T00:17:09.262Z,0
2016-06-14T00:18:09.234Z,0
2016-06-14T00:19:09.221Z,0
2016-06-14T00:20:09.209Z,0
2016-06-14T00:21:09.196Z,0
2016-06-14T00:22:09.152Z,0
2016-06-14T00:23:09.124Z,0
2016-06-14T00:24:08.955Z,0
2016-06-14T00:25:09.099Z,0
2016-06-14T00:26:09.070Z,0
2016-06-14T00:27:09.058Z,0
2016-06-14T00:28:09.030Z,0
2016-06-14T00:29:09.018Z,0
2016-06-14T00:30:08.989Z,0
2016-06-14T00:31:08.820Z,0
2016-06-14T00:32:08.964Z,0
2016-06-14T00:33:08.921Z,0
2016-06-14T00:34:08.907Z,0
2016-06-14T00:35:08.895Z,0
2016-06-14T00:36:08.867Z,0
2016-06-14T00:37:08.839Z,0
2016-06-14T00:38:08.811Z,0
2016-06-14T00:39:08.798Z,0
2016-06-14T00:40:08.786Z,0
2016-06-14T00:41:08.445Z,0
2016-06-14T00:42:08.744Z,0
2016-06-14T00:43:08.733Z,0
2016-06-14T00:44:08.705Z,0
2016-06-14T00:45:08.519Z,0
2016-06-14T00:46:08.507Z,0
2016-06-14T00:47:08.619Z,0
2016-06-14T00:48:08.607Z,0
2016-06-14T00:49:08.595Z,0
2016-06-14T00:50:08.582Z,0
2016-06-14T00:51:08.397Z,0
2016-06-14T00:52:08.525Z,0
2016-06-14T00:53:08.513Z,0
2016-06-14T00:54:08.345Z,0
2016-06-14T00:55:08.456Z,0
2016-06-14T00:56:08.288Z,0
2016-06-14T00:57:08.416Z,0
2016-06-14T00:58:08.403Z,0
2016-06-14T00:59:08.235Z,0
2016-06-14T01:00:08.957Z,0
2016-06-14T01:01:08.350Z,0
2016-06-14T01:02:08.338Z,0
2016-06-14T01:03:08.294Z,0
2016-06-14T01:04:08.281Z,0
2016-06-14T01:05:08.270Z,0
2016-06-14T01:06:08.256Z,0
2016-06-14T01:07:08.213Z,0
2016-06-14T01:08:08.199Z,0
2016-06-14T01:09:08.171Z,0
2016-06-14T01:10:08.160Z,0
2016-06-14T01:11:08.131Z,0
2016-06-14T01:12:08.118Z,0
2016-06-14T01:13:08.106Z,0
2016-06-14T01:14:08.078Z,0
2016-06-14T01:15:08.800Z,0
2016-06-14T01:16:08.020Z,0
2016-06-14T01:17:08.024Z,0
2016-06-14T01:18:07.997Z,0
2016-06-14T01:19:07.968Z,0
2016-06-14T01:20:07.955Z,0
2016-06-14T01:21:07.802Z,0
2016-06-14T01:22:07.915Z,0
2016-06-14T01:23:07.902Z,0
2016-06-14T01:24:07.873Z,0
2016-06-14T01:25:07.846Z,0
2016-06-14T01:26:07.677Z,0
2016-06-14T01:27:07.821Z,0
2016-06-14T01:28:07.793Z,0
2016-06-14T01:29:07.764Z,0
2016-06-14T01:30:07.783Z,0
2016-06-14T01:31:07.724Z,0
2016-06-14T01:32:07.711Z,0
2016-06-14T01:33:07.683Z,0
2016-06-14T01:34:07.670Z,0
2016-06-14T01:35:07.642Z,0
2016-06-14T01:36:07.615Z,0
2016-06-14T01:37:07.601Z,0
2016-06-14T01:38:07.573Z,0
2016-06-14T01:39:07.561Z,0
2016-06-14T01:40:07.548Z,0
2016-06-14T01:41:07.519Z,0
2016-06-14T01:42:07.508Z,0
2016-06-14T01:43:07.479Z,0
2016-06-14T01:44:07.467Z,0
2016-06-14T01:45:07.517Z,0
2016-06-14T01:46:07.426Z,0
2016-06-14T01:47:07.414Z,0
2016-06-14T01:48:07.385Z,0
2016-06-14T01:49:07.357Z,0
2016-06-14T01:50:07.344Z,0
2016-06-14T01:51:07.176Z,0
2016-06-14T01:52:07.163Z,0
2016-06-14T01:53:07.135Z,0
2016-06-14T01:54:07.262Z,0
2016-06-14T01:55:07.251Z,0
2016-06-14T01:56:07.222Z,0
2016-06-14T01:57:07.210Z,0
2016-06-14T01:58:07.197Z,0
2016-06-14T01:59:07.169Z,0
2016-06-14T02:00:07.391Z,0
2016-06-14T02:01:06.972Z,0
2016-06-14T02:02:06.944Z,0
2016-06-14T02:03:07.072Z,0
2016-06-14T02:04:07.060Z,0
2016-06-14T02:05:07.078Z,0
2016-06-14T02:06:07.019Z,0
2016-06-14T02:07:07.006Z,0
2016-06-14T02:08:06.963Z,0
2016-06-14T02:09:06.966Z,0
2016-06-14T02:10:06.953Z,0
2016-06-14T02:11:06.909Z,0
2016-06-14T02:12:06.584Z,0
2016-06-14T02:13:06.884Z,0
2016-06-14T02:14:06.872Z,0
2016-06-14T02:15:06.827Z,0
2016-06-14T02:16:06.815Z,0
2016-06-14T02:17:06.786Z,0
2016-06-14T02:18:06.603Z,0
2016-06-14T02:19:06.761Z,0
2016-06-14T02:20:06.733Z,0
2016-06-14T02:21:06.706Z,0
2016-06-14T02:22:06.536Z,0
2016-06-14T02:23:06.665Z,0
2016-06-14T02:24:06.512Z,0
2016-06-14T02:25:06.624Z,0
2016-06-14T02:26:06.611Z,0
2016-06-14T02:27:06.567Z,0
2016-06-14T02:28:06.602Z,0
2016-06-14T02:29:06.558Z,0
2016-06-14T02:30:07.201Z,0
2016-06-14T02:31:06.517Z,0
2016-06-14T02:32:06.489Z,0
2016-06-14T02:33:06.304Z,0
2016-06-14T02:34:06.449Z,0
2016-06-14T02:35:06.436Z,0
2016-06-14T02:36:06.391Z,0
2016-06-14T02:37:06.380Z,0
2016-06-14T02:38:06.211Z,0
2016-06-14T02:39:06.339Z,0
2016-06-14T02:40:06.326Z,0
2016-06-14T02:41:06.298Z,0
2016-06-14T02:42:06.286Z,0
2016-06-14T02:43:06.257Z,0
2016-06-14T02:44:06.089Z,0
2016-06-14T02:45:06.092Z,0
2016-06-14T02:46:06.204Z,0
2016-06-14T02:47:06.176Z,0
2016-06-14T02:48:05.992Z,0
2016-06-14T02:49:06.135Z,0
2016-06-14T02:50:06.138Z,0
2016-06-14T02:51:06.126Z,0
2016-06-14T02:52:06.066Z,0
2016-06-14T02:53:06.054Z,0
2016-06-14T02:54:05.979Z,0
2016-06-14T02:55:05.778Z,0
2016-06-14T02:56:05.689Z,0
2016-06-14T02:57:06.034Z,0
2016-06-14T02:58:06.006Z,0
2016-06-14T02:59:05.791Z,0
2016-06-14T03:00:05.778Z,0
2016-06-14T03:01:06.047Z,0
2016-06-14T03:02:05.894Z,0
2016-06-14T03:03:05.960Z,0
2016-06-14T03:04:06.041Z,0
2016-06-14T03:05:05.778Z,0
2016-06-14T03:06:05.797Z,0
2016-06-14T03:07:05.770Z,0
2016-06-14T03:08:05.740Z,0
2016-06-14T03:09:05.728Z,0
2016-06-14T03:10:05.715Z,0
2016-06-14T03:11:05.687Z,0
2016-06-14T03:12:05.660Z,0
2016-06-14T03:13:05.647Z,0
2016-06-14T03:14:05.633Z,5
2016-06-14T03:15:06.074Z,5
2016-06-14T03:16:05.437Z,5
2016-06-14T03:17:05.565Z,5
2016-06-14T03:18:05.537Z,5
2016-06-14T03:19:05.509Z,5
2016-06-14T03:20:05.496Z,5
2016-06-14T03:21:05.483Z,5
2016-06-14T03:22:05.471Z,5
2016-06-14T03:23:05.443Z,5
2016-06-14T03:24:05.415Z,10
2016-06-14T03:25:05.402Z,10
2016-06-14T03:26:05.373Z,10
2016-06-14T03:27:05.362Z,10
2016-06-14T03:28:05.334Z,15
2016-06-14T03:29:05.320Z,10
2016-06-14T03:30:05.433Z,10
2016-06-14T03:31:05.263Z,5
2016-06-14T03:32:05.252Z,5
2016-06-14T03:33:05.224Z,5
2016-06-14T03:34:05.227Z,5
2016-06-14T03:35:05.183Z,5
2016-06-14T03:36:05.186Z,5
2016-06-14T03:37:05.142Z,10
2016-06-14T03:38:05.146Z,10
2016-06-14T03:39:05.118Z,10
2016-06-14T03:40:05.089Z,10
2016-06-14T03:41:05.076Z,10
2016-06-14T03:42:05.063Z,10
2016-06-14T03:43:05.036Z,10
2016-06-14T03:44:05.008Z,10
2016-06-14T03:45:05.229Z,10
2016-06-14T03:46:05.029Z,10
2016-06-14T03:47:04.938Z,10
2016-06-14T03:48:04.941Z,5
2016-06-14T03:49:04.913Z,5
2016-06-14T03:50:04.885Z,5
2016-06-14T03:51:04.857Z,5
2016-06-14T03:52:04.860Z,10
2016-06-14T03:53:04.831Z,10
2016-06-14T03:54:04.804Z,10
2016-06-14T03:55:04.776Z,10
2016-06-14T03:56:04.762Z,15
2016-06-14T03:57:04.751Z,20
2016-06-14T03:58:04.722Z,25
2016-06-14T03:59:04.710Z,30
2016-06-14T04:00:05.322Z,30
2016-06-14T04:01:05.247Z,35
2016-06-14T04:02:04.625Z,35
2016-06-14T04:03:04.612Z,30
2016-06-14T04:04:04.597Z,25
2016-06-14T04:05:04.413Z,20
2016-06-14T04:06:04.556Z,25
2016-06-14T04:07:04.543Z,25
2016-06-14T04:08:04.499Z,30
2016-06-14T04:09:04.488Z,35
2016-06-14T04:10:04.475Z,40
2016-06-14T04:11:04.462Z,45
2016-06-14T04:12:04.419Z,45
2016-06-14T04:13:04.250Z,45
2016-06-14T04:14:04.393Z,45
2016-06-14T04:15:04.443Z,45
2016-06-14T04:16:04.853Z,45
2016-06-14T04:17:04.324Z,35
2016-06-14T04:18:04.312Z,30
2016-06-14T04:19:04.299Z,25
2016-06-14T04:20:04.272Z,25
2016-06-14T04:21:04.259Z,30
2016-06-14T04:22:04.074Z,35
2016-06-14T04:23:04.218Z,35
2016-06-14T04:24:04.033Z,40
2016-06-14T04:25:04.177Z,35
2016-06-14T04:26:04.149Z,30
2016-06-14T04:27:04.152Z,25
2016-06-14T04:28:04.108Z,20
2016-06-14T04:29:04.097Z,20
2016-06-14T04:30:04.677Z,20
2016-06-14T04:31:05.258Z,20
2016-06-14T04:32:04.028Z,15
2016-06-14T04:33:04.015Z,15
2016-06-14T04:34:04.001Z,15
2016-06-14T04:35:03.833Z,15
2016-06-14T04:36:03.946Z,15
2016-06-14T04:37:03.932Z,15
2016-06-14T04:38:03.904Z,15
2016-06-14T04:39:03.892Z,20
2016-06-14T04:40:03.864Z,20
2016-06-14T04:41:03.851Z,20
2016-06-14T04:42:03.839Z,20
2016-06-14T04:43:03.670Z,15
2016-06-14T04:44:03.642Z,15
2016-06-14T04:45:03.785Z,15
2016-06-14T04:46:04.038Z,15
2016-06-14T04:47:03.744Z,15
2016-06-14T04:48:03.545Z,15
2016-06-14T04:49:03.673Z,15
2016-06-14T04:50:03.660Z,15
2016-06-14T04:51:03.648Z,15
2016-06-14T04:52:03.620Z,15
2016-06-14T04:53:03.607Z,15
2016-06-14T04:54:03.579Z,20
2016-06-14T04:55:03.582Z,20
2016-06-14T04:56:03.538Z,25
2016-06-14T04:57:03.354Z,30
2016-06-14T04:58:03.498Z,35
2016-06-14T04:59:03.485Z,35
2016-06-14T05:00:03.488Z,35
2016-06-14T05:01:03.616Z,35
2016-06-14T05:02:03.416Z,35
2016-06-14T05:03:03.419Z,35
2016-06-14T05:04:03.376Z,30
2016-06-14T05:05:03.363Z,30
2016-06-14T05:06:03.350Z,25
2016-06-14T05:07:03.322Z,25
2016-06-14T05:08:03.294Z,20
2016-06-14T05:09:03.281Z,20
2016-06-14T05:10:03.112Z,20
2016-06-14T05:11:03.068Z,20
2016-06-14T05:12:03.244Z,20
2016-06-14T05:13:03.216Z,20
2016-06-14T05:14:03.188Z,25
2016-06-14T05:15:03.863Z,30
2016-06-14T05:16:03.397Z,35
2016-06-14T05:17:03.119Z,40
2016-06-14T05:18:03.090Z,40
2016-06-14T05:19:03.078Z,45
2016-06-14T05:20:03.050Z,50
2016-06-14T05:21:03.037Z,55
2016-06-14T05:22:03.009Z,60
2016-06-14T05:23:02.996Z,55
2016-06-14T05:24:02.968Z,60
2016-06-14T05:25:02.956Z,60
2016-06-14T05:26:02.928Z,55
2016-06-14T05:27:02.900Z,65
2016-06-14T05:28:02.902Z,80
2016-06-14T05:29:02.859Z,85
2016-06-14T05:30:02.846Z,85
2016-06-14T05:31:02.990Z,95
2016-06-14T05:32:02.820Z,120
2016-06-14T05:33:02.777Z,145
2016-06-14T05:34:02.764Z,160
2016-06-14T05:35:02.736Z,145
2016-06-14T05:36:02.739Z,125
2016-06-14T05:37:02.712Z,115
2016-06-14T05:38:02.683Z,115
2016-06-14T05:39:02.655Z,110
2016-06-14T05:40:02.673Z,130
2016-06-14T05:41:02.629Z,140
2016-06-14T05:42:02.602Z,150
2016-06-14T05:43:02.589Z,145
2016-06-14T05:44:02.577Z,195
2016-06-14T05:45:02.548Z,255
2016-06-14T05:46:02.411Z,260
2016-06-14T05:47:02.523Z,235
2016-06-14T05:48:02.479Z,255
2016-06-14T05:49:02.467Z,245
2016-06-14T05:50:02.439Z,230
2016-06-14T05:51:02.441Z,185
2016-06-14T05:52:02.414Z,145
2016-06-14T05:53:02.370Z,155
2016-06-14T05:54:02.373Z,145
2016-06-14T05:55:02.360Z,130
2016-06-14T05:56:02.317Z,150
2016-06-14T05:57:02.304Z,100
2016-06-14T05:58:02.292Z,125
2016-06-14T05:59:02.263Z,135
2016-06-14T06:00:02.251Z,145
2016-06-14T06:01:03.129Z,135
2016-06-14T06:02:02.225Z,140
2016-06-14T06:03:02.197Z,155
2016-06-14T06:04:02.186Z,210
2016-06-14T06:05:02.017Z,280
2016-06-14T06:06:02.128Z,285
2016-06-14T06:07:02.116Z,280
2016-06-14T06:08:02.104Z,250
2016-06-14T06:09:02.076Z,250
2016-06-14T06:10:02.063Z,250
2016-06-14T06:11:02.035Z,260
2016-06-14T06:12:02.022Z,235
2016-06-14T06:13:01.994Z,295
2016-06-14T06:14:01.981Z,380
2016-06-14T06:15:01.969Z,605
2016-06-14T06:16:02.472Z,380
2016-06-14T06:17:01.913Z,320
2016-06-14T06:18:01.915Z,305
2016-06-14T06:19:01.888Z,330
2016-06-14T06:20:01.874Z,485
2016-06-14T06:21:01.846Z,340
2016-06-14T06:22:01.834Z,360
2016-06-14T06:23:01.806Z,490
2016-06-14T06:24:01.778Z,465
2016-06-14T06:25:01.640Z,405
2016-06-14T06:26:01.768Z,390
2016-06-14T06:27:01.584Z,405
2016-06-14T06:28:01.712Z,460
2016-06-14T06:29:01.716Z,360
2016-06-14T06:30:01.671Z,285
2016-06-14T06:31:02.175Z,235
2016-06-14T06:32:01.647Z,240
2016-06-14T06:33:01.618Z,225
2016-06-14T06:34:01.606Z,200
2016-06-14T06:35:01.577Z,195
2016-06-14T06:36:01.580Z,185
2016-06-14T06:37:01.552Z,200
2016-06-14T06:38:01.540Z,185
2016-06-14T06:39:01.511Z,175
2016-06-14T06:40:01.358Z,200
2016-06-14T06:41:01.470Z,205
2016-06-14T06:42:01.458Z,195
2016-06-14T06:43:01.446Z,150
2016-06-14T06:44:01.417Z,120
2016-06-14T06:45:01.404Z,105
2016-06-14T06:46:01.777Z,100
2016-06-14T06:47:01.429Z,80
2016-06-14T06:48:01.456Z,65
2016-06-14T06:49:01.482Z,80
2016-06-14T06:50:01.353Z,100
2016-06-14T06:51:01.504Z,145
2016-06-14T06:52:01.489Z,225
2016-06-14T06:53:01.491Z,235
2016-06-14T06:54:01.477Z,265
2016-06-14T06:55:01.479Z,270
2016-06-14T06:56:01.475Z,260
2016-06-14T06:57:01.452Z,235
2016-06-14T06:58:01.443Z,225
2016-06-14T06:59:01.265Z,215
2016-06-14T07:00:01.398Z,215
2016-06-14T07:01:01.263Z,210
2016-06-14T07:02:01.377Z,220
2016-06-14T07:03:01.367Z,225
2016-06-14T07:04:01.355Z,170
2016-06-14T07:05:01.330Z,110
2016-06-14T07:06:01.317Z,115
2016-06-14T07:07:01.290Z,125
2016-06-14T07:08:01.278Z,180
2016-06-14T07:09:01.251Z,190
2016-06-14T07:10:01.253Z,200
2016-06-14T07:11:01.070Z,215
2016-06-14T07:12:01.199Z,225
2016-06-14T07:13:01.186Z,250
2016-06-14T07:14:01.017Z,225
2016-06-14T07:15:00.990Z,250
2016-06-14T07:16:01.821Z,275
2016-06-14T07:17:01.105Z,270
2016-06-14T07:18:01.077Z,270
2016-06-14T07:19:01.064Z,255
2016-06-14T07:20:01.053Z,245
2016-06-14T07:21:00.883Z,245
2016-06-14T07:22:01.012Z,235
2016-06-14T07:23:00.999Z,240
2016-06-14T07:24:00.971Z,225
2016-06-14T07:25:00.958Z,230
2016-06-14T07:26:00.930Z,215
2016-06-14T07:27:00.917Z,210
2016-06-14T07:28:00.889Z,195
2016-06-14T07:29:00.861Z,210
2016-06-14T07:30:00.848Z,220
2016-06-14T07:31:00.867Z,215
2016-06-14T07:32:01.432Z,210
2016-06-14T07:33:00.796Z,200
2016-06-14T07:34:00.486Z,215
2016-06-14T07:35:00.770Z,215
2016-06-14T07:36:00.758Z,230
2016-06-14T07:37:00.714Z,210
2016-06-14T07:38:00.716Z,195
2016-06-14T07:39:00.688Z,175
2016-06-14T07:40:00.676Z,130
2016-06-14T07:41:00.632Z,120
2016-06-14T07:42:00.651Z,135
2016-06-14T07:43:00.607Z,170
2016-06-14T07:44:00.594Z,180
2016-06-14T07:45:00.582Z,165
2016-06-14T07:46:00.258Z,175
2016-06-14T07:47:01.463Z,160
2016-06-14T07:48:00.513Z,155
2016-06-14T07:49:00.501Z,130
2016-06-14T07:50:00.332Z,100
2016-06-14T07:51:00.444Z,105
2016-06-14T07:52:00.448Z,100
2016-06-14T07:53:00.435Z,160
2016-06-14T07:54:00.391Z,185
2016-06-14T07:55:00.394Z,170
2016-06-14T07:56:00.366Z,115
2016-06-14T07:57:00.353Z,90
2016-06-14T07:58:00.326Z,75
2016-06-14T07:59:00.297Z,75
2016-06-14T08:00:00.300Z,70
2016-06-14T08:01:00.288Z,80
2016-06-14T08:01:59.806Z,90
2016-06-14T08:03:00.232Z,115
2016-06-14T08:04:00.219Z,130
2016-06-14T08:05:00.191Z,270
2016-06-14T08:06:00.006Z,220
2016-06-14T08:07:00.133Z,200
2016-06-14T08:08:00.122Z,245
2016-06-14T08:09:00.109Z,235
2016-06-14T08:10:00.096Z,190
2016-06-14T08:11:00.068Z,105
2016-06-14T08:12:00.056Z,85
2016-06-14T08:12:59.887Z,85
2016-06-14T08:14:00.015Z,105
2016-06-14T08:15:00.002Z,95
2016-06-14T08:16:00.193Z,140
2016-06-14T08:17:00.461Z,170
2016-06-14T08:17:59.917Z,195
2016-06-14T08:18:59.921Z,250
2016-06-14T08:19:59.909Z,295
2016-06-14T08:20:59.880Z,415
2016-06-14T08:21:59.852Z,440
2016-06-14T08:22:59.839Z,520
2016-06-14T08:23:59.842Z,630
2016-06-14T08:24:59.800Z,545
2016-06-14T08:25:59.770Z,620
2016-06-14T08:26:59.758Z,645
2016-06-14T08:27:59.745Z,680
2016-06-14T08:28:59.733Z,620
2016-06-14T08:29:59.705Z,665
2016-06-14T08:31:00.067Z,460
2016-06-14T08:32:01.117Z,455
2016-06-14T08:32:59.652Z,535
2016-06-14T08:33:59.638Z,470
2016-06-14T08:34:59.611Z,685
2016-06-14T08:35:59.598Z,680
2016-06-14T08:36:59.570Z,455
2016-06-14T08:37:59.573Z,370
2016-06-14T08:38:59.560Z,415
2016-06-14T08:39:59.532Z,510
2016-06-14T08:40:59.504Z,555
2016-06-14T08:41:59.492Z,480
2016-06-14T08:42:59.480Z,370
2016-06-14T08:43:59.450Z,405
2016-06-14T08:44:59.439Z,385
2016-06-14T08:46:00.206Z,385
2016-06-14T08:46:59.960Z,415
2016-06-14T08:47:59.260Z,410
2016-06-14T08:48:59.373Z,475
2016-06-14T08:49:59.360Z,445
2016-06-14T08:50:59.333Z,380
2016-06-14T08:51:59.319Z,335
2016-06-14T08:52:59.603Z,325
2016-06-14T08:53:59.309Z,300
2016-06-14T08:54:59.282Z,225
2016-06-14T08:55:59.269Z,150
2016-06-14T08:56:59.085Z,150
2016-06-14T08:57:59.244Z,145
2016-06-14T08:58:59.199Z,170
2016-06-14T08:59:59.219Z,200
2016-06-14T09:00:59.550Z,170
2016-06-14T09:01:59.006Z,155
2016-06-14T09:02:59.134Z,145
2016-06-14T09:03:59.122Z,145
2016-06-14T09:04:59.093Z,130
2016-06-14T09:05:59.065Z,130
2016-06-14T09:06:59.053Z,185
2016-06-14T09:07:59.041Z,210
2016-06-14T09:08:59.028Z,215
2016-06-14T09:09:59.015Z,240
2016-06-14T09:10:58.986Z,275
2016-06-14T09:11:58.646Z,325
2016-06-14T09:12:58.947Z,345
2016-06-14T09:13:58.934Z,360
2016-06-14T09:14:58.921Z,380
2016-06-14T09:15:59.049Z,410
2016-06-14T09:16:58.584Z,445
2016-06-14T09:17:58.899Z,500
2016-06-14T09:18:58.840Z,585
2016-06-14T09:19:58.827Z,625
2016-06-14T09:20:58.800Z,670
2016-06-14T09:21:58.630Z,760
2016-06-14T09:22:58.774Z,765
2016-06-14T09:23:58.746Z,815
2016-06-14T09:24:58.749Z,720
2016-06-14T09:25:58.737Z,640
2016-06-14T09:26:58.708Z,415
2016-06-14T09:27:58.680Z,430
2016-06-14T09:28:58.667Z,325
2016-06-14T09:29:58.639Z,290
2016-06-14T09:30:58.658Z,340
2016-06-14T09:31:59.208Z,320
2016-06-14T09:32:58.617Z,395
2016-06-14T09:33:58.590Z,425
2016-06-14T09:34:58.560Z,420
2016-06-14T09:35:58.532Z,230
2016-06-14T09:36:58.536Z,280
2016-06-14T09:37:58.524Z,270
2016-06-14T09:38:58.355Z,315
2016-06-14T09:39:58.483Z,315
2016-06-14T09:40:58.453Z,355
2016-06-14T09:41:58.442Z,370
2016-06-14T09:42:58.460Z,365
2016-06-14T09:43:58.448Z,380
2016-06-14T09:44:58.405Z,355
2016-06-14T09:45:58.423Z,345
2016-06-14T09:46:58.239Z,355
2016-06-14T09:47:58.350Z,430
2016-06-14T09:48:58.338Z,515
2016-06-14T09:49:58.311Z,525
2016-06-14T09:50:58.297Z,455
2016-06-14T09:51:58.285Z,595
2016-06-14T09:52:58.256Z,560
2016-06-14T09:53:58.244Z,420
2016-06-14T09:54:58.076Z,365
2016-06-14T09:55:58.219Z,440
2016-06-14T09:56:58.207Z,485
2016-06-14T09:57:58.022Z,550
2016-06-14T09:58:58.166Z,555
2016-06-14T09:59:57.841Z,535
2016-06-14T10:00:58.890Z,595
2016-06-14T10:01:58.316Z,720
2016-06-14T10:02:58.101Z,845
2016-06-14T10:03:58.118Z,800
2016-06-14T10:04:58.060Z,730
2016-06-14T10:05:58.047Z,780
2016-06-14T10:06:57.878Z,660
2016-06-14T10:07:58.006Z,765
2016-06-14T10:08:57.994Z,775
2016-06-14T10:09:57.840Z,630
2016-06-14T10:10:57.968Z,440
2016-06-14T10:11:57.956Z,370
2016-06-14T10:12:57.943Z,490
2016-06-14T10:13:57.915Z,420
2016-06-14T10:14:57.918Z,380
2016-06-14T10:15:57.890Z,420
2016-06-14T10:16:58.408Z,410
2016-06-14T10:17:57.709Z,400
2016-06-14T10:18:57.853Z,250
2016-06-14T10:19:57.823Z,255
2016-06-14T10:20:57.827Z,305
2016-06-14T10:21:57.815Z,245
2016-06-14T10:22:57.787Z,205
2016-06-14T10:23:57.774Z,250
2016-06-14T10:24:57.746Z,260
2016-06-14T10:25:57.717Z,285
2016-06-14T10:26:57.720Z,350
2016-06-14T10:27:57.709Z,415
2016-06-14T10:28:57.695Z,460
2016-06-14T10:29:57.683Z,470
2016-06-14T10:30:57.670Z,575
2016-06-14T10:31:57.579Z,655
2016-06-14T10:32:57.630Z,510
2016-06-14T10:33:57.602Z,495
2016-06-14T10:34:57.588Z,525
2016-06-14T10:35:57.577Z,430
2016-06-14T10:36:57.548Z,385
2016-06-14T10:37:57.551Z,350
2016-06-14T10:38:57.539Z,490
2016-06-14T10:39:57.527Z,545
2016-06-14T10:40:57.498Z,465
2016-06-14T10:41:57.173Z,365
2016-06-14T10:42:57.176Z,305
2016-06-14T10:43:57.492Z,280
2016-06-14T10:44:57.448Z,345
2016-06-14T10:45:57.419Z,400
2016-06-14T10:46:57.111Z,335
2016-06-14T10:47:57.378Z,295
2016-06-14T10:48:57.209Z,305
2016-06-14T10:49:57.354Z,270
2016-06-14T10:50:57.326Z,290
2016-06-14T10:51:57.313Z,270
2016-06-14T10:52:57.316Z,290
2016-06-14T10:53:57.304Z,330
2016-06-14T10:54:57.275Z,325
2016-06-14T10:55:57.263Z,290
2016-06-14T10:56:57.235Z,255
2016-06-14T10:57:57.222Z,165
2016-06-14T10:58:57.209Z,185
2016-06-14T10:59:57.212Z,270
2016-06-14T11:00:57.185Z,395
2016-06-14T11:01:58.157Z,410
2016-06-14T11:02:57.160Z,470
2016-06-14T11:03:57.131Z,590
2016-06-14T11:04:57.119Z,615
2016-06-14T11:05:57.106Z,570
2016-06-14T11:06:57.078Z,550
2016-06-14T11:07:57.065Z,540
2016-06-14T11:08:57.068Z,445
2016-06-14T11:09:57.040Z,370
2016-06-14T11:10:57.027Z,410
2016-06-14T11:11:56.999Z,530
2016-06-14T11:12:56.830Z,565
2016-06-14T11:13:56.958Z,570
2016-06-14T11:14:56.931Z,445
2016-06-14T11:15:56.934Z,365
2016-06-14T11:16:57.327Z,330
2016-06-14T11:17:56.909Z,445
2016-06-14T11:18:56.880Z,585
2016-06-14T11:19:56.868Z,580
2016-06-14T11:20:56.856Z,550
2016-06-14T11:21:56.843Z,510
2016-06-14T11:22:56.831Z,640
2016-06-14T11:23:56.818Z,660
2016-06-14T11:24:56.789Z,655
2016-06-14T11:25:56.777Z,620
2016-06-14T11:26:56.780Z,580
2016-06-14T11:27:56.751Z,525
2016-06-14T11:28:56.740Z,465
2016-06-14T11:29:56.711Z,440
2016-06-14T11:30:56.714Z,410
2016-06-14T11:31:56.686Z,375
2016-06-14T11:32:56.673Z,335
2016-06-14T11:33:56.505Z,330
2016-06-14T11:34:56.633Z,345
2016-06-14T11:35:56.636Z,375
2016-06-14T11:36:56.624Z,485
2016-06-14T11:37:56.596Z,575
2016-06-14T11:38:56.599Z,560
2016-06-14T11:39:56.399Z,575
2016-06-14T11:40:56.572Z,510
2016-06-14T11:41:56.530Z,370
2016-06-14T11:42:56.517Z,300
2016-06-14T11:43:56.504Z,335
2016-06-14T11:44:56.476Z,410
2016-06-14T11:45:56.354Z,460
2016-06-14T11:46:57.451Z,505
2016-06-14T11:47:58.641Z,615
2016-06-14T11:48:56.363Z,625
2016-06-14T11:49:56.117Z,580
2016-06-14T11:50:56.136Z,530
2016-06-14T11:51:56.373Z,595
2016-06-14T11:52:56.360Z,580
2016-06-14T11:53:56.362Z,505
2016-06-14T11:54:56.335Z,535
2016-06-14T11:55:56.323Z,545
2016-06-14T11:56:56.153Z,525
2016-06-14T11:57:56.282Z,550
2016-06-14T11:58:56.285Z,470
2016-06-14T11:59:56.241Z,520
2016-06-14T12:00:56.259Z,570
2016-06-14T12:01:56.075Z,560
2016-06-14T12:02:56.204Z,545
2016-06-14T12:03:56.207Z,535
2016-06-14T12:04:56.194Z,525
2016-06-14T12:05:56.196Z,545
2016-06-14T12:06:56.152Z,565
2016-06-14T12:07:56.141Z,565
2016-06-14T12:08:56.128Z,570
2016-06-14T12:09:56.116Z,565
2016-06-14T12:10:55.947Z,565
2016-06-14T12:11:55.981Z,540
2016-06-14T12:12:56.062Z,515
2016-06-14T12:13:56.065Z,500
2016-06-14T12:14:56.038Z,470
2016-06-14T12:15:56.040Z,450
2016-06-14T12:16:56.372Z,510
2016-06-14T12:17:55.858Z,550
2016-06-14T12:18:55.987Z,575
2016-06-14T12:19:55.958Z,570
2016-06-14T12:20:55.790Z,540
2016-06-14T12:21:55.934Z,510
2016-06-14T12:22:55.765Z,495
2016-06-14T12:23:55.908Z,440
2016-06-14T12:24:55.880Z,430
2016-06-14T12:25:55.869Z,430
2016-06-14T12:26:55.855Z,465
2016-06-14T12:27:55.858Z,485
2016-06-14T12:28:55.674Z,495
2016-06-14T12:29:55.817Z,495
2016-06-14T12:30:55.820Z,485
2016-06-14T12:31:56.104Z,475
2016-06-14T12:32:56.296Z,455
2016-06-14T12:33:55.752Z,440
2016-06-14T12:34:55.755Z,435
2016-06-14T12:35:55.742Z,440
2016-06-14T12:36:55.714Z,435
2016-06-14T12:37:55.546Z,405
2016-06-14T12:38:55.673Z,400
2016-06-14T12:39:55.676Z,385
2016-06-14T12:40:55.665Z,405
2016-06-14T12:41:55.682Z,405
2016-06-14T12:42:55.623Z,410
2016-06-14T12:43:55.471Z,390
2016-06-14T12:44:55.583Z,345
2016-06-14T12:45:55.602Z,330
2016-06-14T12:46:55.870Z,315
2016-06-14T12:47:55.295Z,315
2016-06-14T12:48:55.518Z,330
2016-06-14T12:49:55.364Z,355
2016-06-14T12:50:55.508Z,375
2016-06-14T12:51:55.479Z,390
2016-06-14T12:52:55.466Z,405
2016-06-14T12:53:55.438Z,435
2016-06-14T12:54:55.458Z,450
2016-06-14T12:55:55.445Z,460
2016-06-14T12:56:55.401Z,470
2016-06-14T12:57:55.389Z,475
2016-06-14T12:58:55.360Z,480
2016-06-14T12:59:55.348Z,485
2016-06-14T13:00:55.335Z,490
2016-06-14T13:01:55.822Z,500
2016-06-14T13:02:55.419Z,510
2016-06-14T13:03:55.297Z,515
2016-06-14T13:04:55.300Z,525
2016-06-14T13:05:55.272Z,530
2016-06-14T13:06:55.244Z,535
2016-06-14T13:07:55.232Z,530
2016-06-14T13:08:55.235Z,520
2016-06-14T13:09:55.207Z,515
2016-06-14T13:10:55.194Z,510
2016-06-14T13:11:55.182Z,500
2016-06-14T13:12:55.169Z,495
2016-06-14T13:13:55.141Z,480
2016-06-14T13:14:55.144Z,485
2016-06-14T13:15:55.115Z,485
2016-06-14T13:16:55.697Z,460
2016-06-14T13:17:55.107Z,435
2016-06-14T13:18:55.078Z,435
2016-06-14T13:19:55.066Z,455
2016-06-14T13:20:55.037Z,435
2016-06-14T13:21:55.041Z,455
2016-06-14T13:22:55.012Z,435
2016-06-14T13:23:54.984Z,370
2016-06-14T13:24:54.987Z,385
2016-06-14T13:25:54.975Z,440
2016-06-14T13:26:54.962Z,455
2016-06-14T13:27:54.950Z,455
2016-06-14T13:28:54.921Z,450
2016-06-14T13:29:54.908Z,460
2016-06-14T13:30:54.911Z,480
2016-06-14T13:31:55.759Z,485
2016-06-14T13:32:55.043Z,505
2016-06-14T13:33:54.858Z,515
2016-06-14T13:34:54.846Z,485
2016-06-14T13:35:54.834Z,425
2016-06-14T13:36:54.805Z,380
2016-06-14T13:37:54.793Z,320
2016-06-14T13:38:54.796Z,305
2016-06-14T13:39:54.768Z,245
2016-06-14T13:40:54.739Z,245
2016-06-14T13:41:54.727Z,290
2016-06-14T13:42:54.559Z,325
2016-06-14T13:43:54.701Z,310
2016-06-14T13:44:54.705Z,275
2016-06-14T13:45:54.693Z,305
2016-06-14T13:46:55.507Z,340
2016-06-14T13:47:54.808Z,335
2016-06-14T13:48:54.498Z,295
2016-06-14T13:49:54.642Z,250
2016-06-14T13:50:54.598Z,220
2016-06-14T13:51:54.586Z,190
2016-06-14T13:52:54.573Z,165
2016-06-14T13:53:54.576Z,145
2016-06-14T13:54:54.564Z,135
2016-06-14T13:55:54.535Z,130
2016-06-14T13:56:54.524Z,135
2016-06-14T13:57:54.510Z,155
2016-06-14T13:58:54.498Z,180
2016-06-14T13:59:54.469Z,230
2016-06-14T14:00:54.457Z,280
2016-06-14T14:01:54.289Z,320
2016-06-14T14:02:54.119Z,355
2016-06-14T14:03:54.420Z,400
2016-06-14T14:04:54.391Z,390